sensor_id;sensor_type;location;lat;lon;timestamp;P1;durP1;ratioP1;P2;durP2;ratioP2
21959;SDS011;11144;43.030;25.108;2023-06-22T00:01:10;16.25;;;11.93;;
21959;SDS011;11144;43.030;25.108;2023-06-22T00:02:43;21.58;;;12.70;;
21959;SDS011;11144;43.030;25.108;2023-06-22T00:04:18;15.90;;;12.25;;
21959;SDS011;11144;43.030;25.108;2023-06-22T00:05:52;16.02;;;11.90;;
21959;SDS011;11144;43.030;25.108;2023-06-22T00:07:26;18.17;;;12.07;;
21959;SDS011;11144;43.030;25.108;2023-06-22T00:08:59;20.65;;;12.18;;
21959;SDS011;11144;43.030;25.108;2023-06-22T00:10:32;17.75;;;10.82;;
21959;SDS011;11144;43.030;25.108;2023-06-22T00:12:05;19.00;;;11.60;;
21959;SDS011;11144;43.030;25.108;2023-06-22T00:13:39;20.48;;;11.50;;
21959;SDS011;11144;43.030;25.108;2023-06-22T00:15:13;21.38;;;12.27;;
21959;SDS011;11144;43.030;25.108;2023-06-22T00:16:46;13.52;;;10.95;;
21959;SDS011;11144;43.030;25.108;2023-06-22T00:18:20;18.45;;;11.27;;
21959;SDS011;11144;43.030;25.108;2023-06-22T00:19:55;13.75;;;10.95;;
21959;SDS011;11144;43.030;25.108;2023-06-22T00:21:30;17.70;;;11.63;;
21959;SDS011;11144;43.030;25.108;2023-06-22T00:23:04;18.73;;;10.98;;
21959;SDS011;11144;43.030;25.108;2023-06-22T00:24:40;16.58;;;11.48;;
21959;SDS011;11144;43.030;25.108;2023-06-22T00:26:13;14.27;;;10.18;;
21959;SDS011;11144;43.030;25.108;2023-06-22T00:27:47;21.65;;;11.85;;
21959;SDS011;11144;43.030;25.108;2023-06-22T00:29:19;21.60;;;11.20;;
21959;SDS011;11144;43.030;25.108;2023-06-22T00:30:56;14.43;;;10.70;;
21959;SDS011;11144;43.030;25.108;2023-06-22T00:32:29;15.63;;;10.40;;
21959;SDS011;11144;43.030;25.108;2023-06-22T00:34:03;15.43;;;11.43;;
21959;SDS011;11144;43.030;25.108;2023-06-22T00:35:41;18.92;;;11.57;;
21959;SDS011;11144;43.030;25.108;2023-06-22T00:37:14;18.70;;;11.52;;
21959;SDS011;11144;43.030;25.108;2023-06-22T00:38:48;24.10;;;12.43;;
21959;SDS011;11144;43.030;25.108;2023-06-22T00:40:22;21.05;;;11.55;;
21959;SDS011;11144;43.030;25.108;2023-06-22T00:41:55;21.48;;;12.40;;
21959;SDS011;11144;43.030;25.108;2023-06-22T00:43:29;21.95;;;12.23;;
21959;SDS011;11144;43.030;25.108;2023-06-22T00:45:02;18.55;;;11.85;;
21959;SDS011;11144;43.030;25.108;2023-06-22T00:46:36;14.63;;;10.75;;
21959;SDS011;11144;43.030;25.108;2023-06-22T00:48:09;14.82;;;10.73;;
21959;SDS011;11144;43.030;25.108;2023-06-22T00:49:44;16.50;;;11.43;;
21959;SDS011;11144;43.030;25.108;2023-06-22T00:51:21;17.70;;;12.05;;
21959;SDS011;11144;43.030;25.108;2023-06-22T00:52:56;15.25;;;10.45;;
21959;SDS011;11144;43.030;25.108;2023-06-22T00:54:31;15.75;;;11.20;;
21959;SDS011;11144;43.030;25.108;2023-06-22T00:56:06;15.60;;;10.93;;
21959;SDS011;11144;43.030;25.108;2023-06-22T00:57:40;16.85;;;11.95;;
21959;SDS011;11144;43.030;25.108;2023-06-22T00:59:12;17.55;;;12.38;;
21959;SDS011;11144;43.030;25.108;2023-06-22T01:00:49;18.77;;;13.10;;
21959;SDS011;11144;43.030;25.108;2023-06-22T01:02:22;17.55;;;11.05;;
21959;SDS011;11144;43.030;25.108;2023-06-22T01:03:56;18.25;;;11.98;;
21959;SDS011;11144;43.030;25.108;2023-06-22T01:05:30;21.67;;;14.30;;
21959;SDS011;11144;43.030;25.108;2023-06-22T01:07:14;16.52;;;11.85;;
21959;SDS011;11144;43.030;25.108;2023-06-22T01:08:57;46.42;;;30.45;;
21959;SDS011;11144;43.030;25.108;2023-06-22T01:10:40;19.13;;;13.18;;
21959;SDS011;11144;43.030;25.108;2023-06-22T01:12:17;22.80;;;15.60;;
21959;SDS011;11144;43.030;25.108;2023-06-22T01:13:56;18.00;;;12.77;;
21959;SDS011;11144;43.030;25.108;2023-06-22T01:15:36;15.45;;;10.73;;
21959;SDS011;11144;43.030;25.108;2023-06-22T01:17:13;13.40;;;10.18;;
21959;SDS011;11144;43.030;25.108;2023-06-22T01:18:49;15.85;;;11.13;;
21959;SDS011;11144;43.030;25.108;2023-06-22T01:20:25;15.57;;;10.93;;
21959;SDS011;11144;43.030;25.108;2023-06-22T01:22:01;17.10;;;10.73;;
21959;SDS011;11144;43.030;25.108;2023-06-22T01:23:42;16.13;;;10.45;;
21959;SDS011;11144;43.030;25.108;2023-06-22T01:25:28;15.27;;;11.02;;
21959;SDS011;11144;43.030;25.108;2023-06-22T01:27:09;17.42;;;11.02;;
21959;SDS011;11144;43.030;25.108;2023-06-22T01:28:55;17.52;;;11.82;;
21959;SDS011;11144;43.030;25.108;2023-06-22T01:30:32;21.25;;;12.00;;
21959;SDS011;11144;43.030;25.108;2023-06-22T01:32:08;19.25;;;11.35;;
21959;SDS011;11144;43.030;25.108;2023-06-22T01:33:43;23.63;;;11.68;;
21959;SDS011;11144;43.030;25.108;2023-06-22T01:35:19;25.10;;;12.07;;
21959;SDS011;11144;43.030;25.108;2023-06-22T01:36:54;28.38;;;12.27;;
21959;SDS011;11144;43.030;25.108;2023-06-22T01:38:27;18.00;;;11.65;;
21959;SDS011;11144;43.030;25.108;2023-06-22T01:40:01;22.67;;;11.60;;
21959;SDS011;11144;43.030;25.108;2023-06-22T01:41:37;19.98;;;12.77;;
21959;SDS011;11144;43.030;25.108;2023-06-22T01:43:12;18.92;;;12.13;;
21959;SDS011;11144;43.030;25.108;2023-06-22T01:44:45;18.13;;;12.00;;
21959;SDS011;11144;43.030;25.108;2023-06-22T01:46:19;20.13;;;12.15;;
21959;SDS011;11144;43.030;25.108;2023-06-22T01:47:53;18.15;;;11.68;;
21959;SDS011;11144;43.030;25.108;2023-06-22T01:49:27;17.52;;;11.00;;
21959;SDS011;11144;43.030;25.108;2023-06-22T01:51:01;17.35;;;9.95;;
21959;SDS011;11144;43.030;25.108;2023-06-22T01:52:34;20.30;;;11.90;;
21959;SDS011;11144;43.030;25.108;2023-06-22T01:54:08;18.02;;;10.88;;
21959;SDS011;11144;43.030;25.108;2023-06-22T01:55:43;15.85;;;12.05;;
21959;SDS011;11144;43.030;25.108;2023-06-22T01:57:16;17.65;;;12.15;;
21959;SDS011;11144;43.030;25.108;2023-06-22T01:58:51;17.75;;;11.55;;
21959;SDS011;11144;43.030;25.108;2023-06-22T02:00:33;22.95;;;11.98;;
21959;SDS011;11144;43.030;25.108;2023-06-22T02:02:10;14.90;;;10.68;;
21959;SDS011;11144;43.030;25.108;2023-06-22T02:03:46;14.80;;;11.35;;
21959;SDS011;11144;43.030;25.108;2023-06-22T02:05:25;13.57;;;10.65;;
21959;SDS011;11144;43.030;25.108;2023-06-22T02:07:05;17.65;;;11.63;;
21959;SDS011;11144;43.030;25.108;2023-06-22T02:08:46;20.85;;;11.75;;
21959;SDS011;11144;43.030;25.108;2023-06-22T02:10:22;18.15;;;12.23;;
21959;SDS011;11144;43.030;25.108;2023-06-22T02:11:57;20.58;;;11.80;;
21959;SDS011;11144;43.030;25.108;2023-06-22T02:13:33;20.05;;;12.68;;
21959;SDS011;11144;43.030;25.108;2023-06-22T02:15:07;14.35;;;12.32;;
21959;SDS011;11144;43.030;25.108;2023-06-22T02:16:43;17.80;;;12.02;;
21959;SDS011;11144;43.030;25.108;2023-06-22T02:18:18;19.38;;;11.55;;
21959;SDS011;11144;43.030;25.108;2023-06-22T02:19:52;21.40;;;12.20;;
21959;SDS011;11144;43.030;25.108;2023-06-22T02:21:25;19.50;;;12.55;;
21959;SDS011;11144;43.030;25.108;2023-06-22T02:22:58;18.58;;;12.38;;
21959;SDS011;11144;43.030;25.108;2023-06-22T02:24:31;22.40;;;11.80;;
21959;SDS011;11144;43.030;25.108;2023-06-22T02:26:05;14.82;;;11.98;;
21959;SDS011;11144;43.030;25.108;2023-06-22T02:27:38;22.70;;;12.10;;
21959;SDS011;11144;43.030;25.108;2023-06-22T02:29:13;21.27;;;11.82;;
21959;SDS011;11144;43.030;25.108;2023-06-22T02:30:46;17.05;;;10.85;;
21959;SDS011;11144;43.030;25.108;2023-06-22T02:32:20;17.23;;;11.35;;
21959;SDS011;11144;43.030;25.108;2023-06-22T02:33:54;16.10;;;11.05;;
21959;SDS011;11144;43.030;25.108;2023-06-22T02:35:27;13.55;;;10.20;;
21959;SDS011;11144;43.030;25.108;2023-06-22T02:37:03;19.27;;;11.52;;
21959;SDS011;11144;43.030;25.108;2023-06-22T02:38:37;26.90;;;12.38;;
21959;SDS011;11144;43.030;25.108;2023-06-22T02:40:10;23.35;;;13.43;;
21959;SDS011;11144;43.030;25.108;2023-06-22T02:41:44;25.90;;;12.07;;
21959;SDS011;11144;43.030;25.108;2023-06-22T02:43:19;22.80;;;12.32;;
21959;SDS011;11144;43.030;25.108;2023-06-22T02:44:52;18.42;;;13.05;;
21959;SDS011;11144;43.030;25.108;2023-06-22T02:46:25;20.33;;;13.50;;
21959;SDS011;11144;43.030;25.108;2023-06-22T02:48:00;23.92;;;12.50;;
21959;SDS011;11144;43.030;25.108;2023-06-22T02:49:34;17.92;;;11.55;;
21959;SDS011;11144;43.030;25.108;2023-06-22T02:51:08;23.00;;;13.07;;
21959;SDS011;11144;43.030;25.108;2023-06-22T02:52:41;19.05;;;12.95;;
21959;SDS011;11144;43.030;25.108;2023-06-22T02:54:15;18.00;;;11.80;;
21959;SDS011;11144;43.030;25.108;2023-06-22T02:55:50;21.92;;;12.50;;
21959;SDS011;11144;43.030;25.108;2023-06-22T02:57:23;17.77;;;12.18;;
21959;SDS011;11144;43.030;25.108;2023-06-22T02:58:57;23.58;;;11.85;;
21959;SDS011;11144;43.030;25.108;2023-06-22T03:00:37;18.15;;;12.43;;
21959;SDS011;11144;43.030;25.108;2023-06-22T03:02:11;17.05;;;11.88;;
21959;SDS011;11144;43.030;25.108;2023-06-22T03:03:47;19.13;;;11.68;;
21959;SDS011;11144;43.030;25.108;2023-06-22T03:05:21;14.52;;;11.50;;
21959;SDS011;11144;43.030;25.108;2023-06-22T03:06:54;16.33;;;10.75;;
21959;SDS011;11144;43.030;25.108;2023-06-22T03:08:28;18.67;;;12.05;;
21959;SDS011;11144;43.030;25.108;2023-06-22T03:10:01;19.00;;;11.55;;
21959;SDS011;11144;43.030;25.108;2023-06-22T03:11:35;16.45;;;11.13;;
21959;SDS011;11144;43.030;25.108;2023-06-22T03:13:09;15.75;;;12.05;;
21959;SDS011;11144;43.030;25.108;2023-06-22T03:14:42;14.88;;;11.40;;
21959;SDS011;11144;43.030;25.108;2023-06-22T03:16:16;17.45;;;11.77;;
21959;SDS011;11144;43.030;25.108;2023-06-22T03:17:49;22.55;;;12.23;;
21959;SDS011;11144;43.030;25.108;2023-06-22T03:19:24;19.35;;;11.45;;
21959;SDS011;11144;43.030;25.108;2023-06-22T03:20:57;18.30;;;12.05;;
21959;SDS011;11144;43.030;25.108;2023-06-22T03:22:32;18.20;;;11.98;;
21959;SDS011;11144;43.030;25.108;2023-06-22T03:24:05;16.42;;;11.85;;
21959;SDS011;11144;43.030;25.108;2023-06-22T03:25:39;19.98;;;11.82;;
21959;SDS011;11144;43.030;25.108;2023-06-22T03:27:13;23.10;;;11.93;;
21959;SDS011;11144;43.030;25.108;2023-06-22T03:28:47;16.40;;;11.55;;
21959;SDS011;11144;43.030;25.108;2023-06-22T03:30:20;19.55;;;11.48;;
21959;SDS011;11144;43.030;25.108;2023-06-22T03:31:54;21.63;;;11.43;;
21959;SDS011;11144;43.030;25.108;2023-06-22T03:33:27;21.30;;;11.88;;
21959;SDS011;11144;43.030;25.108;2023-06-22T03:35:04;16.65;;;10.82;;
21959;SDS011;11144;43.030;25.108;2023-06-22T03:36:40;18.90;;;11.07;;
21959;SDS011;11144;43.030;25.108;2023-06-22T03:38:16;18.85;;;12.43;;
21959;SDS011;11144;43.030;25.108;2023-06-22T03:39:50;22.88;;;10.48;;
21959;SDS011;11144;43.030;25.108;2023-06-22T03:41:24;16.95;;;10.88;;
21959;SDS011;11144;43.030;25.108;2023-06-22T03:42:58;20.20;;;12.13;;
21959;SDS011;11144;43.030;25.108;2023-06-22T03:44:33;19.88;;;11.90;;
21959;SDS011;11144;43.030;25.108;2023-06-22T03:46:09;17.83;;;12.02;;
21959;SDS011;11144;43.030;25.108;2023-06-22T03:47:43;16.80;;;11.70;;
21959;SDS011;11144;43.030;25.108;2023-06-22T03:49:16;21.95;;;11.55;;
21959;SDS011;11144;43.030;25.108;2023-06-22T03:50:51;24.23;;;11.35;;
21959;SDS011;11144;43.030;25.108;2023-06-22T03:52:24;15.77;;;11.15;;
21959;SDS011;11144;43.030;25.108;2023-06-22T03:53:58;21.88;;;10.60;;
21959;SDS011;11144;43.030;25.108;2023-06-22T03:55:31;26.95;;;10.32;;
21959;SDS011;11144;43.030;25.108;2023-06-22T03:57:06;14.93;;;11.38;;
21959;SDS011;11144;43.030;25.108;2023-06-22T03:58:40;17.38;;;11.18;;
21959;SDS011;11144;43.030;25.108;2023-06-22T04:00:16;16.35;;;10.60;;
21959;SDS011;11144;43.030;25.108;2023-06-22T04:01:50;16.08;;;10.15;;
21959;SDS011;11144;43.030;25.108;2023-06-22T04:03:23;14.98;;;9.60;;
21959;SDS011;11144;43.030;25.108;2023-06-22T04:04:56;14.43;;;9.82;;
21959;SDS011;11144;43.030;25.108;2023-06-22T04:06:36;13.52;;;10.55;;
21959;SDS011;11144;43.030;25.108;2023-06-22T04:08:10;13.60;;;9.40;;
21959;SDS011;11144;43.030;25.108;2023-06-22T04:09:43;16.80;;;10.65;;
21959;SDS011;11144;43.030;25.108;2023-06-22T04:11:16;14.23;;;9.52;;
21959;SDS011;11144;43.030;25.108;2023-06-22T04:12:50;13.00;;;10.50;;
21959;SDS011;11144;43.030;25.108;2023-06-22T04:14:23;11.18;;;9.80;;
21959;SDS011;11144;43.030;25.108;2023-06-22T04:15:57;11.02;;;9.65;;
21959;SDS011;11144;43.030;25.108;2023-06-22T04:17:32;10.50;;;9.32;;
21959;SDS011;11144;43.030;25.108;2023-06-22T04:19:06;16.50;;;9.98;;
21959;SDS011;11144;43.030;25.108;2023-06-22T04:20:44;16.85;;;9.02;;
21959;SDS011;11144;43.030;25.108;2023-06-22T04:22:20;15.60;;;9.50;;
21959;SDS011;11144;43.030;25.108;2023-06-22T04:23:53;13.43;;;9.25;;
21959;SDS011;11144;43.030;25.108;2023-06-22T04:25:27;12.02;;;8.77;;
21959;SDS011;11144;43.030;25.108;2023-06-22T04:27:00;18.98;;;10.25;;
21959;SDS011;11144;43.030;25.108;2023-06-22T04:28:34;15.80;;;9.55;;
21959;SDS011;11144;43.030;25.108;2023-06-22T04:30:07;20.38;;;9.45;;
21959;SDS011;11144;43.030;25.108;2023-06-22T04:31:42;17.52;;;9.55;;
21959;SDS011;11144;43.030;25.108;2023-06-22T04:33:15;16.08;;;9.73;;
21959;SDS011;11144;43.030;25.108;2023-06-22T04:34:50;12.50;;;8.80;;
21959;SDS011;11144;43.030;25.108;2023-06-22T04:36:24;13.07;;;8.95;;
21959;SDS011;11144;43.030;25.108;2023-06-22T04:37:58;12.93;;;8.27;;
21959;SDS011;11144;43.030;25.108;2023-06-22T04:39:32;9.60;;;7.60;;
21959;SDS011;11144;43.030;25.108;2023-06-22T04:41:05;17.95;;;9.25;;
21959;SDS011;11144;43.030;25.108;2023-06-22T04:42:41;15.18;;;8.65;;
21959;SDS011;11144;43.030;25.108;2023-06-22T04:44:24;15.30;;;8.77;;
21959;SDS011;11144;43.030;25.108;2023-06-22T04:45:58;12.10;;;8.48;;
21959;SDS011;11144;43.030;25.108;2023-06-22T04:47:35;16.73;;;8.60;;
21959;SDS011;11144;43.030;25.108;2023-06-22T04:49:11;14.45;;;7.88;;
21959;SDS011;11144;43.030;25.108;2023-06-22T04:50:44;10.45;;;7.93;;
21959;SDS011;11144;43.030;25.108;2023-06-22T04:52:17;10.30;;;8.43;;
21959;SDS011;11144;43.030;25.108;2023-06-22T04:53:53;9.57;;;7.72;;
21959;SDS011;11144;43.030;25.108;2023-06-22T04:55:32;14.68;;;8.50;;
21959;SDS011;11144;43.030;25.108;2023-06-22T04:57:06;10.95;;;7.95;;
21959;SDS011;11144;43.030;25.108;2023-06-22T04:58:42;13.25;;;7.10;;
21959;SDS011;11144;43.030;25.108;2023-06-22T05:00:15;10.23;;;7.47;;
21959;SDS011;11144;43.030;25.108;2023-06-22T05:01:51;11.88;;;7.95;;
21959;SDS011;11144;43.030;25.108;2023-06-22T05:03:25;16.80;;;7.78;;
21959;SDS011;11144;43.030;25.108;2023-06-22T05:04:59;9.40;;;8.13;;
21959;SDS011;11144;43.030;25.108;2023-06-22T05:06:32;10.65;;;7.65;;
21959;SDS011;11144;43.030;25.108;2023-06-22T05:08:07;8.80;;;7.40;;
21959;SDS011;11144;43.030;25.108;2023-06-22T05:09:42;8.43;;;7.63;;
21959;SDS011;11144;43.030;25.108;2023-06-22T05:11:15;12.43;;;7.82;;
21959;SDS011;11144;43.030;25.108;2023-06-22T05:12:49;8.73;;;7.35;;
21959;SDS011;11144;43.030;25.108;2023-06-22T05:14:22;9.20;;;7.40;;
21959;SDS011;11144;43.030;25.108;2023-06-22T05:15:56;9.10;;;7.43;;
21959;SDS011;11144;43.030;25.108;2023-06-22T05:17:33;9.95;;;7.22;;
21959;SDS011;11144;43.030;25.108;2023-06-22T05:19:06;10.45;;;8.05;;
21959;SDS011;11144;43.030;25.108;2023-06-22T05:20:40;9.60;;;7.10;;
21959;SDS011;11144;43.030;25.108;2023-06-22T05:22:14;10.25;;;7.93;;
21959;SDS011;11144;43.030;25.108;2023-06-22T05:23:47;10.75;;;8.15;;
21959;SDS011;11144;43.030;25.108;2023-06-22T05:25:22;13.68;;;7.75;;
21959;SDS011;11144;43.030;25.108;2023-06-22T05:26:56;12.43;;;7.88;;
21959;SDS011;11144;43.030;25.108;2023-06-22T05:28:29;10.50;;;7.32;;
21959;SDS011;11144;43.030;25.108;2023-06-22T05:30:02;10.32;;;7.40;;
21959;SDS011;11144;43.030;25.108;2023-06-22T05:31:36;8.20;;;7.35;;
21959;SDS011;11144;43.030;25.108;2023-06-22T05:33:11;7.82;;;7.03;;
21959;SDS011;11144;43.030;25.108;2023-06-22T05:34:45;10.40;;;7.05;;
21959;SDS011;11144;43.030;25.108;2023-06-22T05:36:18;8.45;;;7.63;;
21959;SDS011;11144;43.030;25.108;2023-06-22T05:37:51;9.73;;;7.20;;
21959;SDS011;11144;43.030;25.108;2023-06-22T05:39:24;7.65;;;6.88;;
21959;SDS011;11144;43.030;25.108;2023-06-22T05:40:59;9.45;;;8.13;;
21959;SDS011;11144;43.030;25.108;2023-06-22T05:42:33;8.80;;;7.32;;
21959;SDS011;11144;43.030;25.108;2023-06-22T05:44:06;9.70;;;7.50;;
21959;SDS011;11144;43.030;25.108;2023-06-22T05:45:39;8.68;;;7.05;;
21959;SDS011;11144;43.030;25.108;2023-06-22T05:47:13;9.80;;;7.32;;
21959;SDS011;11144;43.030;25.108;2023-06-22T05:48:46;9.40;;;7.00;;
21959;SDS011;11144;43.030;25.108;2023-06-22T05:50:20;7.25;;;6.55;;
21959;SDS011;11144;43.030;25.108;2023-06-22T05:51:53;10.63;;;7.13;;
21959;SDS011;11144;43.030;25.108;2023-06-22T05:53:26;10.32;;;7.45;;
21959;SDS011;11144;43.030;25.108;2023-06-22T05:55:01;12.20;;;7.38;;
21959;SDS011;11144;43.030;25.108;2023-06-22T05:56:36;11.40;;;7.53;;
21959;SDS011;11144;43.030;25.108;2023-06-22T05:58:10;10.20;;;7.43;;
21959;SDS011;11144;43.030;25.108;2023-06-22T05:59:45;9.88;;;6.90;;
21959;SDS011;11144;43.030;25.108;2023-06-22T06:01:18;10.50;;;7.68;;
21959;SDS011;11144;43.030;25.108;2023-06-22T06:02:52;10.98;;;7.45;;
21959;SDS011;11144;43.030;25.108;2023-06-22T06:04:25;8.65;;;7.47;;
21959;SDS011;11144;43.030;25.108;2023-06-22T06:05:59;10.18;;;7.30;;
21959;SDS011;11144;43.030;25.108;2023-06-22T06:07:34;10.70;;;7.35;;
21959;SDS011;11144;43.030;25.108;2023-06-22T06:09:07;7.43;;;6.65;;
21959;SDS011;11144;43.030;25.108;2023-06-22T06:10:40;8.48;;;7.55;;
21959;SDS011;11144;43.030;25.108;2023-06-22T06:12:15;11.38;;;7.53;;
21959;SDS011;11144;43.030;25.108;2023-06-22T06:13:48;10.45;;;7.43;;
21959;SDS011;11144;43.030;25.108;2023-06-22T06:15:21;8.63;;;7.80;;
21959;SDS011;11144;43.030;25.108;2023-06-22T06:16:55;9.73;;;7.50;;
21959;SDS011;11144;43.030;25.108;2023-06-22T06:18:28;8.32;;;7.20;;
21959;SDS011;11144;43.030;25.108;2023-06-22T06:20:01;8.20;;;7.20;;
21959;SDS011;11144;43.030;25.108;2023-06-22T06:21:36;8.30;;;7.50;;
21959;SDS011;11144;43.030;25.108;2023-06-22T06:23:10;9.10;;;7.00;;
21959;SDS011;11144;43.030;25.108;2023-06-22T06:24:43;8.63;;;7.32;;
21959;SDS011;11144;43.030;25.108;2023-06-22T06:26:16;15.05;;;7.85;;
21959;SDS011;11144;43.030;25.108;2023-06-22T06:27:56;10.75;;;8.07;;
21959;SDS011;11144;43.030;25.108;2023-06-22T06:29:29;12.75;;;7.40;;
21959;SDS011;11144;43.030;25.108;2023-06-22T06:31:03;10.63;;;7.28;;
21959;SDS011;11144;43.030;25.108;2023-06-22T06:32:39;10.85;;;8.73;;
21959;SDS011;11144;43.030;25.108;2023-06-22T06:34:13;12.10;;;7.68;;
21959;SDS011;11144;43.030;25.108;2023-06-22T06:35:47;12.45;;;7.85;;
21959;SDS011;11144;43.030;25.108;2023-06-22T06:37:20;11.88;;;8.55;;
21959;SDS011;11144;43.030;25.108;2023-06-22T06:38:53;10.02;;;7.60;;
21959;SDS011;11144;43.030;25.108;2023-06-22T06:40:27;11.48;;;7.85;;
21959;SDS011;11144;43.030;25.108;2023-06-22T06:42:01;12.02;;;8.20;;
21959;SDS011;11144;43.030;25.108;2023-06-22T06:43:36;16.08;;;8.25;;
21959;SDS011;11144;43.030;25.108;2023-06-22T06:45:09;11.57;;;7.80;;
21959;SDS011;11144;43.030;25.108;2023-06-22T06:46:43;11.07;;;7.30;;
21959;SDS011;11144;43.030;25.108;2023-06-22T06:48:16;11.52;;;7.88;;
21959;SDS011;11144;43.030;25.108;2023-06-22T06:49:50;10.82;;;7.72;;
21959;SDS011;11144;43.030;25.108;2023-06-22T06:51:23;10.50;;;8.00;;
21959;SDS011;11144;43.030;25.108;2023-06-22T06:52:57;10.20;;;7.40;;
21959;SDS011;11144;43.030;25.108;2023-06-22T06:54:30;11.23;;;7.93;;
21959;SDS011;11144;43.030;25.108;2023-06-22T06:56:04;11.73;;;8.55;;
21959;SDS011;11144;43.030;25.108;2023-06-22T06:57:38;18.20;;;8.18;;
21959;SDS011;11144;43.030;25.108;2023-06-22T06:59:13;13.93;;;8.27;;
21959;SDS011;11144;43.030;25.108;2023-06-22T07:00:46;12.30;;;9.18;;
21959;SDS011;11144;43.030;25.108;2023-06-22T07:02:20;9.00;;;7.82;;
21959;SDS011;11144;43.030;25.108;2023-06-22T07:03:53;12.00;;;7.53;;
21959;SDS011;11144;43.030;25.108;2023-06-22T07:05:27;10.30;;;8.50;;
21959;SDS011;11144;43.030;25.108;2023-06-22T07:07:01;20.33;;;8.18;;
21959;SDS011;11144;43.030;25.108;2023-06-22T07:08:35;11.50;;;8.35;;
21959;SDS011;11144;43.030;25.108;2023-06-22T07:10:09;11.77;;;7.55;;
21959;SDS011;11144;43.030;25.108;2023-06-22T07:11:42;9.60;;;7.57;;
21959;SDS011;11144;43.030;25.108;2023-06-22T07:13:16;11.18;;;7.32;;
21959;SDS011;11144;43.030;25.108;2023-06-22T07:14:51;10.82;;;7.78;;
21959;SDS011;11144;43.030;25.108;2023-06-22T07:16:24;11.65;;;8.35;;
21959;SDS011;11144;43.030;25.108;2023-06-22T07:17:59;18.15;;;8.43;;
21959;SDS011;11144;43.030;25.108;2023-06-22T07:19:33;12.13;;;8.25;;
21959;SDS011;11144;43.030;25.108;2023-06-22T07:21:06;14.20;;;8.30;;
21959;SDS011;11144;43.030;25.108;2023-06-22T07:22:40;16.63;;;8.55;;
21959;SDS011;11144;43.030;25.108;2023-06-22T07:24:14;13.65;;;8.68;;
21959;SDS011;11144;43.030;25.108;2023-06-22T07:25:50;9.80;;;8.25;;
21959;SDS011;11144;43.030;25.108;2023-06-22T07:27:23;14.18;;;7.78;;
21959;SDS011;11144;43.030;25.108;2023-06-22T07:28:57;10.60;;;7.97;;
21959;SDS011;11144;43.030;25.108;2023-06-22T07:30:32;12.25;;;7.95;;
21959;SDS011;11144;43.030;25.108;2023-06-22T07:32:06;11.95;;;7.60;;
21959;SDS011;11144;43.030;25.108;2023-06-22T07:33:40;13.23;;;7.85;;
21959;SDS011;11144;43.030;25.108;2023-06-22T07:35:14;13.15;;;9.07;;
21959;SDS011;11144;43.030;25.108;2023-06-22T07:36:48;15.75;;;8.82;;
21959;SDS011;11144;43.030;25.108;2023-06-22T07:38:21;11.25;;;7.50;;
21959;SDS011;11144;43.030;25.108;2023-06-22T07:39:55;13.43;;;8.50;;
21959;SDS011;11144;43.030;25.108;2023-06-22T07:41:30;10.95;;;7.30;;
21959;SDS011;11144;43.030;25.108;2023-06-22T07:43:03;9.82;;;8.05;;
21959;SDS011;11144;43.030;25.108;2023-06-22T07:44:36;8.77;;;7.95;;
21959;SDS011;11144;43.030;25.108;2023-06-22T07:46:11;11.18;;;8.98;;
21959;SDS011;11144;43.030;25.108;2023-06-22T07:47:45;9.63;;;7.43;;
21959;SDS011;11144;43.030;25.108;2023-06-22T07:49:19;24.80;;;15.52;;
21959;SDS011;11144;43.030;25.108;2023-06-22T07:50:52;43.63;;;19.45;;
21959;SDS011;11144;43.030;25.108;2023-06-22T07:52:25;23.90;;;13.02;;
21959;SDS011;11144;43.030;25.108;2023-06-22T07:53:59;11.77;;;8.63;;
21959;SDS011;11144;43.030;25.108;2023-06-22T07:55:32;19.13;;;9.50;;
21959;SDS011;11144;43.030;25.108;2023-06-22T07:57:05;11.95;;;8.27;;
21959;SDS011;11144;43.030;25.108;2023-06-22T07:58:40;14.35;;;7.88;;
21959;SDS011;11144;43.030;25.108;2023-06-22T08:00:13;12.40;;;8.05;;
21959;SDS011;11144;43.030;25.108;2023-06-22T08:01:49;13.55;;;8.00;;
21959;SDS011;11144;43.030;25.108;2023-06-22T08:03:23;12.75;;;8.15;;
21959;SDS011;11144;43.030;25.108;2023-06-22T08:04:56;13.43;;;7.88;;
21959;SDS011;11144;43.030;25.108;2023-06-22T08:06:46;9.68;;;7.78;;
21959;SDS011;11144;43.030;25.108;2023-06-22T08:08:19;15.25;;;9.13;;
21959;SDS011;11144;43.030;25.108;2023-06-22T08:09:52;13.60;;;7.80;;
21959;SDS011;11144;43.030;25.108;2023-06-22T08:11:26;11.63;;;8.13;;
21959;SDS011;11144;43.030;25.108;2023-06-22T08:12:59;10.80;;;7.55;;
21959;SDS011;11144;43.030;25.108;2023-06-22T08:14:33;9.30;;;8.15;;
21959;SDS011;11144;43.030;25.108;2023-06-22T08:16:10;10.63;;;7.93;;
21959;SDS011;11144;43.030;25.108;2023-06-22T08:17:45;11.65;;;8.20;;
21959;SDS011;11144;43.030;25.108;2023-06-22T08:19:18;13.30;;;8.20;;
21959;SDS011;11144;43.030;25.108;2023-06-22T08:20:52;12.45;;;8.70;;
21959;SDS011;11144;43.030;25.108;2023-06-22T08:22:25;10.18;;;8.13;;
21959;SDS011;11144;43.030;25.108;2023-06-22T08:23:58;9.68;;;7.28;;
21959;SDS011;11144;43.030;25.108;2023-06-22T08:25:32;10.82;;;7.32;;
21959;SDS011;11144;43.030;25.108;2023-06-22T08:27:06;11.02;;;7.80;;
21959;SDS011;11144;43.030;25.108;2023-06-22T08:28:41;15.27;;;9.10;;
21959;SDS011;11144;43.030;25.108;2023-06-22T08:30:15;9.90;;;7.60;;
21959;SDS011;11144;43.030;25.108;2023-06-22T08:31:48;8.80;;;8.00;;
21959;SDS011;11144;43.030;25.108;2023-06-22T08:33:23;13.68;;;7.70;;
21959;SDS011;11144;43.030;25.108;2023-06-22T08:35:00;13.52;;;7.53;;
21959;SDS011;11144;43.030;25.108;2023-06-22T08:36:33;10.05;;;7.63;;
21959;SDS011;11144;43.030;25.108;2023-06-22T08:38:13;11.48;;;7.53;;
21959;SDS011;11144;43.030;25.108;2023-06-22T08:39:47;12.30;;;7.38;;
21959;SDS011;11144;43.030;25.108;2023-06-22T08:41:21;10.43;;;7.82;;
21959;SDS011;11144;43.030;25.108;2023-06-22T08:42:54;8.98;;;7.50;;
21959;SDS011;11144;43.030;25.108;2023-06-22T08:44:27;8.27;;;7.03;;
21959;SDS011;11144;43.030;25.108;2023-06-22T08:46:01;11.10;;;7.60;;
21959;SDS011;11144;43.030;25.108;2023-06-22T08:47:34;7.93;;;6.78;;
21959;SDS011;11144;43.030;25.108;2023-06-22T08:49:09;16.67;;;8.73;;
21959;SDS011;11144;43.030;25.108;2023-06-22T08:50:42;7.97;;;7.10;;
21959;SDS011;11144;43.030;25.108;2023-06-22T08:52:16;8.23;;;7.28;;
21959;SDS011;11144;43.030;25.108;2023-06-22T08:53:50;8.45;;;7.57;;
21959;SDS011;11144;43.030;25.108;2023-06-22T08:55:23;8.93;;;7.20;;
21959;SDS011;11144;43.030;25.108;2023-06-22T08:56:57;10.13;;;7.85;;
21959;SDS011;11144;43.030;25.108;2023-06-22T08:58:30;8.60;;;7.78;;
21959;SDS011;11144;43.030;25.108;2023-06-22T09:00:04;12.57;;;7.45;;
21959;SDS011;11144;43.030;25.108;2023-06-22T09:01:47;8.18;;;7.13;;
21959;SDS011;11144;43.030;25.108;2023-06-22T09:03:20;10.18;;;6.60;;
21959;SDS011;11144;43.030;25.108;2023-06-22T09:05:02;8.23;;;7.13;;
21959;SDS011;11144;43.030;25.108;2023-06-22T09:06:36;10.27;;;7.70;;
21959;SDS011;11144;43.030;25.108;2023-06-22T09:08:16;10.50;;;6.82;;
21959;SDS011;11144;43.030;25.108;2023-06-22T09:09:50;10.43;;;7.43;;
21959;SDS011;11144;43.030;25.108;2023-06-22T09:11:23;13.32;;;7.57;;